createdAt,value
2023-04-29T00:01:03.586Z,15.02
2023-04-29T00:03:32.535Z,14.52
2023-04-29T00:06:00.212Z,15.30
2023-04-29T00:08:28.271Z,14.68
2023-04-29T00:10:55.467Z,15.13
2023-04-29T00:13:22.170Z,15.07
2023-04-29T00:15:48.956Z,15.23
2023-04-29T00:18:15.654Z,16.58
2023-04-29T00:20:43.379Z,15.77
2023-04-29T00:23:10.088Z,17.58
2023-04-29T00:25:38.458Z,16.73
2023-04-29T00:28:06.105Z,16.63
2023-04-29T00:30:34.588Z,14.60
2023-04-29T00:33:01.874Z,17.27
2023-04-29T00:35:29.402Z,18.23
2023-04-29T00:37:55.976Z,17.52
2023-04-29T00:40:22.603Z,17.65
2023-04-29T00:42:49.347Z,17.90
2023-04-29T00:45:16.176Z,14.52
2023-04-29T00:47:42.879Z,18.75
2023-04-29T00:50:09.753Z,19.20
2023-04-29T00:52:38.166Z,20.35
2023-04-29T00:55:06.636Z,18.33
2023-04-29T00:57:34.470Z,18.05
2023-04-29T01:00:01.411Z,19.55
2023-04-29T01:02:28.836Z,15.18
2023-04-29T01:04:55.626Z,20.33
2023-04-29T01:07:36.626Z,19.20
2023-04-29T01:10:09.496Z,20.38
2023-04-29T01:12:36.192Z,21.05
2023-04-29T01:15:09.902Z,20.85
2023-04-29T01:17:41.338Z,20.10
2023-04-29T01:20:10.227Z,21.83
2023-04-29T01:22:39.236Z,21.25
2023-04-29T01:25:06.906Z,20.05
2023-04-29T01:27:53.444Z,24.38
2023-04-29T01:30:32.689Z,24.08
2023-04-29T01:33:03.183Z,23.27
2023-04-29T01:35:52.371Z,23.55
2023-04-29T01:38:40.113Z,25.02
2023-04-29T01:41:20.063Z,22.85
2023-04-29T01:43:52.323Z,23.38
2023-04-29T01:46:22.307Z,21.95
2023-04-29T01:48:54.884Z,21.48
2023-04-29T01:51:21.872Z,24.52
2023-04-29T01:53:49.185Z,25.05
2023-04-29T01:56:16.090Z,20.10
2023-04-29T01:59:05.897Z,24.35
2023-04-29T02:01:53.315Z,24.45
2023-04-29T02:04:20.737Z,25.90
2023-04-29T02:06:47.441Z,26.13
2023-04-29T02:09:17.037Z,26.40
2023-04-29T02:11:49.669Z,24.33
2023-04-29T02:14:16.291Z,23.77
2023-04-29T02:16:46.115Z,26.15
2023-04-29T02:19:18.165Z,25.67
2023-04-29T02:21:44.885Z,22.98
2023-04-29T02:24:11.551Z,22.95
2023-04-29T02:26:38.474Z,23.83
2023-04-29T02:29:05.072Z,23.15
2023-04-29T02:31:31.791Z,22.02
2023-04-29T02:33:58.389Z,22.83
2023-04-29T02:36:25.033Z,23.42
2023-04-29T02:38:55.132Z,23.52
2023-04-29T02:41:22.128Z,22.83
2023-04-29T02:43:51.490Z,22.67
2023-04-29T02:46:18.902Z,23.45
2023-04-29T02:48:45.824Z,23.75
2023-04-29T02:51:14.463Z,21.70
2023-04-29T02:53:41.133Z,22.85
2023-04-29T02:56:07.783Z,23.15
2023-04-29T02:58:34.517Z,22.05
2023-04-29T03:01:01.264Z,20.10
2023-04-29T03:03:28.165Z,20.08
2023-04-29T03:05:54.969Z,19.60
2023-04-29T03:08:22.186Z,21.23
2023-04-29T03:10:48.971Z,19.77
2023-04-29T03:13:15.935Z,19.00
2023-04-29T03:15:44.255Z,22.00
2023-04-29T03:18:11.110Z,19.77
2023-04-29T03:20:37.835Z,17.17
2023-04-29T03:23:05.162Z,18.23
2023-04-29T03:25:31.786Z,19.73
2023-04-29T03:27:58.931Z,16.83
2023-04-29T03:30:25.581Z,17.85
2023-04-29T03:32:56.087Z,18.60
2023-04-29T03:35:22.825Z,18.58
2023-04-29T03:38:07.895Z,18.48
2023-04-29T03:40:36.067Z,18.63
2023-04-29T03:43:03.417Z,18.05
2023-04-29T03:45:30.695Z,18.23
2023-04-29T03:47:57.551Z,18.92
2023-04-29T03:50:24.409Z,18.58
2023-04-29T03:52:51.055Z,19.35
2023-04-29T03:55:19.112Z,18.98
2023-04-29T03:57:45.799Z,19.40
2023-04-29T04:00:14.375Z,20.60
2023-04-29T04:02:44.483Z,18.70
2023-04-29T04:05:12.052Z,19.83
2023-04-29T04:07:41.869Z,21.45
2023-04-29T04:10:28.756Z,19.50
2023-04-29T04:12:56.560Z,20.25
2023-04-29T04:15:23.605Z,19.83
2023-04-29T04:17:50.534Z,19.65
2023-04-29T04:20:20.187Z,21.77
2023-04-29T04:22:49.557Z,21.38
2023-04-29T04:25:23.934Z,21.30
2023-04-29T04:27:52.226Z,20.40
2023-04-29T04:30:30.978Z,22.15
2023-04-29T04:32:57.680Z,21.45
2023-04-29T04:35:24.725Z,21.08
2023-04-29T04:37:51.511Z,21.92
2023-04-29T04:40:18.159Z,21.75
2023-04-29T04:43:08.188Z,20.90
2023-04-29T04:45:39.796Z,21.23
2023-04-29T04:48:06.967Z,19.23
2023-04-29T04:50:35.945Z,20.70
2023-04-29T04:53:03.614Z,20.70
2023-04-29T04:55:43.745Z,22.05
2023-04-29T04:58:10.464Z,21.50
2023-04-29T05:00:38.495Z,21.63
2023-04-29T05:03:05.223Z,23.02
2023-04-29T05:05:33.551Z,22.60
2023-04-29T05:08:00.361Z,20.75
2023-04-29T05:10:36.588Z,19.52
2023-04-29T05:13:05.235Z,20.77
2023-04-29T05:15:32.396Z,20.45
2023-04-29T05:18:00.763Z,21.13
2023-04-29T05:20:27.734Z,20.95
2023-04-29T05:22:55.569Z,20.35
2023-04-29T05:25:23.244Z,20.00
2023-04-29T05:27:50.540Z,20.48
2023-04-29T05:30:19.808Z,18.58
2023-04-29T05:32:46.659Z,19.75
2023-04-29T05:35:15.762Z,21.60
2023-04-29T05:37:44.197Z,19.02
2023-04-29T05:40:46.294Z,19.98
2023-04-29T05:43:21.931Z,20.08
2023-04-29T05:45:48.914Z,19.05
2023-04-29T05:48:15.770Z,19.50
2023-04-29T05:50:44.260Z,18.88
2023-04-29T05:53:11.223Z,18.92
2023-04-29T05:55:37.895Z,19.00
2023-04-29T05:58:04.634Z,18.58
2023-04-29T06:00:31.844Z,18.58
2023-04-29T06:03:08.021Z,19.10
2023-04-29T06:05:35.838Z,19.65
2023-04-29T06:08:21.566Z,18.88
2023-04-29T06:10:53.547Z,18.77
2023-04-29T06:13:20.448Z,19.00
2023-04-29T06:15:47.158Z,18.67
2023-04-29T06:18:14.968Z,18.63
2023-04-29T06:20:42.681Z,17.73
2023-04-29T06:23:09.354Z,18.80
2023-04-29T06:25:36.377Z,18.02
2023-04-29T06:28:08.271Z,19.13
2023-04-29T06:30:35.038Z,20.10
2023-04-29T06:33:01.740Z,19.17
2023-04-29T06:35:28.855Z,20.38
2023-04-29T06:38:17.859Z,18.45
2023-04-29T06:41:11.155Z,18.45
2023-04-29T06:44:00.693Z,19.38
2023-04-29T06:46:45.424Z,19.33
2023-04-29T06:49:17.924Z,19.85
2023-04-29T06:51:44.553Z,19.05
2023-04-29T06:54:11.231Z,20.45
2023-04-29T06:56:37.841Z,19.92
2023-04-29T06:59:04.551Z,19.33
2023-04-29T07:01:31.475Z,20.17
2023-04-29T07:03:58.434Z,20.05
2023-04-29T07:06:25.416Z,19.65
2023-04-29T07:08:52.853Z,18.73
2023-04-29T07:11:20.431Z,19.65
2023-04-29T07:13:47.034Z,19.58
2023-04-29T07:16:26.335Z,19.50
2023-04-29T07:18:53.004Z,20.80
2023-04-29T07:21:19.756Z,20.65
2023-04-29T07:23:47.015Z,20.70
2023-04-29T07:26:17.470Z,20.38
2023-04-29T07:28:45.755Z,22.08
2023-04-29T07:31:12.472Z,22.35
2023-04-29T07:33:39.148Z,21.38
2023-04-29T07:36:07.338Z,20.25
2023-04-29T07:38:34.715Z,23.38
2023-04-29T07:41:01.689Z,21.95
2023-04-29T07:43:28.944Z,23.17
2023-04-29T07:45:55.939Z,23.25
2023-04-29T07:48:22.932Z,22.05
2023-04-29T07:50:49.657Z,24.50
2023-04-29T07:53:18.074Z,24.42
2023-04-29T07:55:44.626Z,24.80
2023-04-29T07:58:11.653Z,24.90
2023-04-29T08:00:38.768Z,26.08
2023-04-29T08:03:06.155Z,25.15
2023-04-29T08:05:33.717Z,26.27
2023-04-29T08:08:00.799Z,24.95
2023-04-29T08:10:27.450Z,25.10
2023-04-29T08:12:54.088Z,26.25
2023-04-29T08:15:22.238Z,25.85
2023-04-29T08:17:48.863Z,25.95
2023-04-29T08:20:15.530Z,24.95
2023-04-29T08:22:42.618Z,25.50
2023-04-29T08:25:09.647Z,25.58
2023-04-29T08:27:36.332Z,24.10
2023-04-29T08:30:03.255Z,25.40
2023-04-29T08:32:29.956Z,26.48
2023-04-29T08:34:56.671Z,26.17
2023-04-29T08:37:23.262Z,24.38
2023-04-29T08:39:49.848Z,26.25
2023-04-29T08:42:21.484Z,24.00
2023-04-29T08:44:49.228Z,23.05
2023-04-29T08:47:16.328Z,24.02
2023-04-29T08:49:42.919Z,22.40
2023-04-29T08:52:09.632Z,25.02
2023-04-29T08:54:36.236Z,23.80
2023-04-29T08:57:03.344Z,24.30
2023-04-29T08:59:30.487Z,23.40
2023-04-29T09:01:57.503Z,21.90
2023-04-29T09:04:32.681Z,22.25
2023-04-29T09:06:59.481Z,22.45
2023-04-29T09:09:26.390Z,21.85
2023-04-29T09:11:53.404Z,21.75
2023-04-29T09:14:20.722Z,20.48
2023-04-29T09:16:47.793Z,19.65
2023-04-29T09:19:34.811Z,20.75
2023-04-29T09:22:02.938Z,20.10
2023-04-29T09:24:31.548Z,18.83
2023-04-29T09:26:59.198Z,20.45
2023-04-29T09:29:25.813Z,19.77
2023-04-29T09:31:56.229Z,19.92
2023-04-29T09:34:35.915Z,19.85
2023-04-29T09:37:02.515Z,19.65
2023-04-29T09:39:38.741Z,19.45
2023-04-29T09:42:05.775Z,19.58
2023-04-29T09:44:35.888Z,19.08
2023-04-29T09:47:07.480Z,18.23
2023-04-29T09:49:45.372Z,18.00
2023-04-29T09:52:13.990Z,18.05
2023-04-29T09:54:42.559Z,16.45
2023-04-29T09:57:11.025Z,18.48
2023-04-29T09:59:39.688Z,17.75
2023-04-29T10:02:18.037Z,17.77
2023-04-29T10:04:46.413Z,17.95
2023-04-29T10:07:17.824Z,17.38
2023-04-29T10:09:47.157Z,17.08
2023-04-29T10:12:18.476Z,17.98
2023-04-29T10:14:57.662Z,18.42
2023-04-29T10:18:04.726Z,17.98
2023-04-29T10:20:31.446Z,15.90
2023-04-29T10:22:59.825Z,16.63
2023-04-29T10:25:28.268Z,17.88
2023-04-29T10:27:56.042Z,17.00
2023-04-29T10:30:22.950Z,15.30
2023-04-29T10:32:52.386Z,16.55
2023-04-29T10:35:23.581Z,16.17
2023-04-29T10:37:50.869Z,15.45
2023-04-29T10:40:27.278Z,14.43
2023-04-29T10:42:54.673Z,15.77
2023-04-29T10:45:32.738Z,15.52
2023-04-29T10:48:08.917Z,16.40
2023-04-29T10:50:45.376Z,14.38
2023-04-29T10:53:12.183Z,13.68
2023-04-29T10:55:38.974Z,14.00
2023-04-29T10:58:05.960Z,14.85
2023-04-29T11:00:34.957Z,13.30
2023-04-29T11:03:02.757Z,13.50
2023-04-29T11:05:38.585Z,13.85
2023-04-29T11:08:22.979Z,13.95
2023-04-29T11:10:53.895Z,13.90
2023-04-29T11:13:28.947Z,13.27
2023-04-29T11:16:06.043Z,13.10
2023-04-29T11:18:32.790Z,12.00
2023-04-29T11:21:08.661Z,12.55
2023-04-29T11:23:36.349Z,12.07
2023-04-29T11:26:03.390Z,12.50
2023-04-29T11:28:33.634Z,11.50
2023-04-29T11:31:00.918Z,12.38
2023-04-29T11:33:28.237Z,12.50
2023-04-29T11:35:55.442Z,11.88
2023-04-29T11:38:26.385Z,12.50
2023-04-29T11:40:53.066Z,12.73
2023-04-29T11:43:23.132Z,12.75
2023-04-29T11:45:50.859Z,12.55
2023-04-29T11:48:26.063Z,13.55
2023-04-29T11:50:57.745Z,13.57
2023-04-29T11:53:27.861Z,13.57
2023-04-29T11:55:55.296Z,13.43
2023-04-29T11:58:22.943Z,12.75
2023-04-29T12:00:50.413Z,12.85
2023-04-29T12:03:18.577Z,13.43
2023-04-29T12:05:48.737Z,13.05
2023-04-29T12:08:15.335Z,13.23
2023-04-29T12:10:41.986Z,13.75
2023-04-29T12:13:10.223Z,12.60
2023-04-29T12:15:38.393Z,12.20
2023-04-29T12:18:07.419Z,12.60
2023-04-29T12:20:34.271Z,12.60
2023-04-29T12:23:14.279Z,12.15
2023-04-29T12:25:41.407Z,13.13
2023-04-29T12:28:14.708Z,12.15
2023-04-29T12:30:41.593Z,12.93
2023-04-29T12:33:09.747Z,12.48
2023-04-29T12:35:39.529Z,12.88
2023-04-29T12:38:08.711Z,13.43
2023-04-29T12:40:35.351Z,11.63
2023-04-29T12:43:09.122Z,13.13
2023-04-29T12:45:36.423Z,12.50
2023-04-29T12:48:08.746Z,11.75
2023-04-29T12:50:39.560Z,12.30
2023-04-29T12:53:07.925Z,13.32
2023-04-29T12:55:35.976Z,12.75
2023-04-29T12:58:03.694Z,12.10
2023-04-29T13:00:32.311Z,12.70
2023-04-29T13:02:59.345Z,12.65
2023-04-29T13:05:26.081Z,10.35
2023-04-29T13:07:52.797Z,10.80
2023-04-29T13:10:19.519Z,11.02
2023-04-29T13:12:47.759Z,10.75
2023-04-29T13:15:14.712Z,10.30
2023-04-29T13:17:41.573Z,11.90
2023-04-29T13:20:11.170Z,11.27
2023-04-29T13:22:38.080Z,11.00
2023-04-29T13:25:05.382Z,10.90
2023-04-29T13:27:32.148Z,8.65
2023-04-29T13:29:58.829Z,8.00
2023-04-29T13:32:26.098Z,8.07
2023-04-29T13:34:53.401Z,8.38
2023-04-29T13:37:20.367Z,8.90
2023-04-29T13:39:48.096Z,8.57
2023-04-29T13:42:15.818Z,10.43
2023-04-29T13:44:52.637Z,9.57
2023-04-29T13:47:25.651Z,10.57
2023-04-29T13:50:25.548Z,10.25
2023-04-29T13:53:23.532Z,11.25
2023-04-29T13:56:23.446Z,11.18
2023-04-29T13:58:52.196Z,11.40
2023-04-29T14:01:24.814Z,11.75
2023-04-29T14:03:47.172Z,11.10
2023-04-29T14:06:16.021Z,10.77
2023-04-29T14:08:42.685Z,11.18
2023-04-29T14:11:09.320Z,10.52
2023-04-29T14:13:36.071Z,10.20
2023-04-29T14:16:05.452Z,10.85
2023-04-29T14:18:32.108Z,9.82
2023-04-29T14:20:59.700Z,11.43
2023-04-29T14:23:26.516Z,9.77
2023-04-29T14:25:58.914Z,8.88
2023-04-29T14:28:33.392Z,9.20
2023-04-29T14:31:00.099Z,8.52
2023-04-29T14:33:27.446Z,7.93
2023-04-29T14:35:54.075Z,7.63
2023-04-29T14:38:22.003Z,7.88
2023-04-29T14:40:48.839Z,7.38
2023-04-29T14:43:15.667Z,6.07
2023-04-29T14:45:42.294Z,7.53
2023-04-29T14:48:10.781Z,6.30
2023-04-29T14:50:37.565Z,6.43
2023-04-29T14:53:04.382Z,5.53
2023-04-29T14:55:31.537Z,6.28
2023-04-29T14:57:58.266Z,6.28
2023-04-29T15:00:24.827Z,6.28
2023-04-29T15:02:53.466Z,6.70
2023-04-29T15:05:21.882Z,6.65
2023-04-29T15:07:48.460Z,6.35
2023-04-29T15:10:15.214Z,7.22
2023-04-29T15:12:41.836Z,8.10
2023-04-29T15:15:09.253Z,7.13
2023-04-29T15:17:35.925Z,7.20
2023-04-29T15:20:03.015Z,7.68
2023-04-29T15:22:29.878Z,7.93
2023-04-29T15:24:56.703Z,8.73
2023-04-29T15:27:23.351Z,7.35
2023-04-29T15:29:50.085Z,7.50
2023-04-29T15:32:17.208Z,7.78
2023-04-29T15:34:43.863Z,7.78
2023-04-29T15:37:10.436Z,8.38
2023-04-29T15:39:37.034Z,8.00
2023-04-29T15:42:04.230Z,8.15
2023-04-29T15:44:31.593Z,7.50
2023-04-29T15:46:58.299Z,7.65
2023-04-29T15:49:25.577Z,7.47
2023-04-29T15:51:52.226Z,8.50
2023-04-29T15:54:18.923Z,7.95
2023-04-29T15:56:45.692Z,7.75
2023-04-29T15:59:12.377Z,9.50
2023-04-29T16:01:39.188Z,11.13
2023-04-29T16:04:06.164Z,10.10
2023-04-29T16:06:33.057Z,9.23
2023-04-29T16:09:01.819Z,8.68
2023-04-29T16:11:28.470Z,8.75
2023-04-29T16:13:55.218Z,8.18
2023-04-29T16:16:21.878Z,8.38
2023-04-29T16:18:48.543Z,8.20
2023-04-29T16:21:15.326Z,7.97
2023-04-29T16:23:42.198Z,9.27
2023-04-29T16:26:09.217Z,9.27
2023-04-29T16:28:36.005Z,8.75
2023-04-29T16:31:03.837Z,8.48
2023-04-29T16:33:30.671Z,8.43
2023-04-29T16:36:00.719Z,7.35
2023-04-29T16:38:27.364Z,7.47
2023-04-29T16:40:54.038Z,7.78
2023-04-29T16:43:20.821Z,7.28
2023-04-29T16:45:47.518Z,7.63
2023-04-29T16:48:14.206Z,7.68
2023-04-29T16:50:41.175Z,6.78
2023-04-29T16:53:07.808Z,6.93
2023-04-29T16:55:34.484Z,6.82
2023-04-29T16:58:01.200Z,7.07
2023-04-29T17:00:27.888Z,6.75
2023-04-29T17:02:58.291Z,6.88
2023-04-29T17:05:26.517Z,10.98
2023-04-29T17:07:54.423Z,7.88
2023-04-29T17:10:21.074Z,7.30
2023-04-29T17:12:47.998Z,6.97
2023-04-29T17:15:14.619Z,9.63
2023-04-29T17:17:41.751Z,6.90
2023-04-29T17:20:09.533Z,6.35
2023-04-29T17:22:36.195Z,7.28
2023-04-29T17:25:03.075Z,7.40
2023-04-29T17:27:29.888Z,7.85
2023-04-29T17:29:57.038Z,7.28
2023-04-29T17:32:28.560Z,7.55
2023-04-29T17:34:56.373Z,7.53
2023-04-29T17:37:25.308Z,13.40
2023-04-29T17:39:55.853Z,8.07
2023-04-29T17:42:23.083Z,7.95
2023-04-29T17:44:49.925Z,7.40
2023-04-29T17:47:17.350Z,6.80
2023-04-29T17:49:44.255Z,6.93
2023-04-29T17:52:11.203Z,6.43
2023-04-29T17:54:41.740Z,6.28
2023-04-29T17:57:08.911Z,6.65
2023-04-29T17:59:35.591Z,7.38
2023-04-29T18:02:03.003Z,7.35
2023-04-29T18:04:29.667Z,6.93
2023-04-29T18:06:56.269Z,7.63
2023-04-29T18:09:22.930Z,6.95
2023-04-29T18:11:49.574Z,7.80
2023-04-29T18:14:16.703Z,7.68
2023-04-29T18:16:45.242Z,7.10
2023-04-29T18:19:12.345Z,7.35
2023-04-29T18:21:39.090Z,7.90
2023-04-29T18:24:06.865Z,7.30
2023-04-29T18:26:33.727Z,7.70
2023-04-29T18:29:00.524Z,7.50
2023-04-29T18:31:27.359Z,7.05
2023-04-29T18:33:54.083Z,7.60
2023-04-29T18:36:21.416Z,13.55
2023-04-29T18:38:48.138Z,8.35
2023-04-29T18:41:14.959Z,12.65
2023-04-29T18:43:41.857Z,8.40
2023-04-29T18:46:09.188Z,19.48
2023-04-29T18:48:36.579Z,13.55
2023-04-29T18:51:04.406Z,16.90
2023-04-29T18:53:31.388Z,11.57
2023-04-29T18:55:58.671Z,9.85
2023-04-29T18:58:28.200Z,7.78
2023-04-29T19:00:55.148Z,9.23
2023-04-29T19:03:21.871Z,8.15
2023-04-29T19:05:49.020Z,7.70
2023-04-29T19:08:20.695Z,9.35
2023-04-29T19:10:47.739Z,9.23
2023-04-29T19:13:14.368Z,8.77
2023-04-29T19:15:41.046Z,9.10
2023-04-29T19:18:09.018Z,9.40
2023-04-29T19:20:36.350Z,9.95
2023-04-29T19:23:03.007Z,11.35
2023-04-29T19:25:31.528Z,11.70
2023-04-29T19:27:58.296Z,11.10
2023-04-29T19:30:25.558Z,10.73
2023-04-29T19:32:52.230Z,11.13
2023-04-29T19:35:18.975Z,11.32
2023-04-29T19:37:45.716Z,12.10
2023-04-29T19:40:12.483Z,12.38
2023-04-29T19:42:39.627Z,14.48
2023-04-29T19:45:07.904Z,18.00
2023-04-29T19:47:35.063Z,15.23
2023-04-29T19:50:02.285Z,17.13
2023-04-29T19:52:29.708Z,16.27
2023-04-29T19:54:56.856Z,14.18
2023-04-29T19:57:23.503Z,12.40
2023-04-29T19:59:50.226Z,13.50
2023-04-29T20:02:16.990Z,11.82
2023-04-29T20:04:43.672Z,11.63
2023-04-29T20:07:10.332Z,12.00
2023-04-29T20:09:37.698Z,8.82
2023-04-29T20:12:04.698Z,9.15
2023-04-29T20:14:32.775Z,8.63
2023-04-29T20:17:03.243Z,7.25
2023-04-29T20:19:31.288Z,6.50
2023-04-29T20:21:57.978Z,7.53
2023-04-29T20:24:24.714Z,5.95
2023-04-29T20:26:51.353Z,5.90
2023-04-29T20:29:17.993Z,6.43
2023-04-29T20:31:44.729Z,7.68
2023-04-29T20:34:11.738Z,6.68
2023-04-29T20:36:38.435Z,6.68
2023-04-29T20:39:06.791Z,5.68
2023-04-29T20:41:33.441Z,6.80
2023-04-29T20:44:00.288Z,6.55
2023-04-29T20:46:27.522Z,5.72
2023-04-29T20:48:54.232Z,5.93
2023-04-29T20:51:20.867Z,7.93
2023-04-29T20:53:47.969Z,6.43
2023-04-29T20:56:14.625Z,6.70
2023-04-29T20:58:41.254Z,6.90
2023-04-29T21:01:08.286Z,7.10
2023-04-29T21:03:35.116Z,5.10
2023-04-29T21:06:01.920Z,5.57
2023-04-29T21:08:28.597Z,4.75
2023-04-29T21:10:55.264Z,5.90
2023-04-29T21:13:21.999Z,5.15
2023-04-29T21:15:48.646Z,5.45
2023-04-29T21:18:16.861Z,5.07
2023-04-29T21:20:43.521Z,4.88
2023-04-29T21:23:10.210Z,5.07
2023-04-29T21:25:36.777Z,5.68
2023-04-29T21:28:04.394Z,4.88
2023-04-29T21:30:31.107Z,5.50
2023-04-29T21:32:57.851Z,4.72
2023-04-29T21:35:24.549Z,5.78
2023-04-29T21:37:53.528Z,5.05
2023-04-29T21:40:20.476Z,4.03
2023-04-29T21:42:47.564Z,4.78
2023-04-29T21:45:17.414Z,4.60
2023-04-29T21:47:44.305Z,4.18
2023-04-29T21:50:11.667Z,5.07
2023-04-29T21:52:38.497Z,5.15
2023-04-29T21:55:05.468Z,4.93
2023-04-29T21:57:43.599Z,5.18
2023-04-29T22:00:28.198Z,4.68
2023-04-29T22:02:54.849Z,5.50
2023-04-29T22:05:21.638Z,5.45
2023-04-29T22:07:48.238Z,6.43
2023-04-29T22:10:14.999Z,5.00
2023-04-29T22:12:42.038Z,5.68
2023-04-29T22:15:24.536Z,5.35
2023-04-29T22:17:54.701Z,5.20
2023-04-29T22:20:21.387Z,5.45
2023-04-29T22:22:48.009Z,5.18
2023-04-29T22:25:14.705Z,5.40
2023-04-29T22:27:41.367Z,5.15
2023-04-29T22:30:08.504Z,5.32
2023-04-29T22:32:35.173Z,6.32
2023-04-29T22:35:01.850Z,7.75
2023-04-29T22:37:29.188Z,6.35
2023-04-29T22:39:56.951Z,7.57
2023-04-29T22:42:23.969Z,7.07
2023-04-29T22:44:50.598Z,6.95
2023-04-29T22:47:17.292Z,6.32
2023-04-29T22:49:43.979Z,6.65
2023-04-29T22:52:10.746Z,6.18
2023-04-29T22:54:37.328Z,7.25
2023-04-29T22:57:04.118Z,6.97
2023-04-29T22:59:30.886Z,6.38
2023-04-29T23:01:57.803Z,5.88
2023-04-29T23:04:24.789Z,5.80
2023-04-29T23:06:52.058Z,6.22
2023-04-29T23:09:18.944Z,6.15
2023-04-29T23:11:45.717Z,5.72
2023-04-29T23:14:12.360Z,6.25
2023-04-29T23:16:41.157Z,6.00
2023-04-29T23:19:07.794Z,6.22
2023-04-29T23:21:34.464Z,6.30
2023-04-29T23:24:01.145Z,6.47
2023-04-29T23:26:27.807Z,6.78
2023-04-29T23:28:55.101Z,6.10
2023-04-29T23:31:21.749Z,5.75
2023-04-29T23:33:48.852Z,6.88
2023-04-29T23:36:15.451Z,7.05
2023-04-29T23:38:42.067Z,6.63
2023-04-29T23:41:08.723Z,6.38
2023-04-29T23:43:35.373Z,7.10
2023-04-29T23:46:02.081Z,7.57
2023-04-29T23:48:28.756Z,7.70
2023-04-29T23:50:55.374Z,6.25
2023-04-29T23:53:22.058Z,7.25
2023-04-29T23:55:51.795Z,7.30
2023-04-29T23:58:18.400Z,7.15
